Time,TemperatureF,DewpointF,PressureIn,WindDirection,WindDirectionDegrees,WindSpeedMPH,WindSpeedGustMPH,Humidity,HourlyPrecipIn,Conditions,Clouds,dailyrainin,SolarRadiationWatts/m^2,SoftwareType,DateUTC
2013-09-11 00:01:00,69.8,65.8,29.95,WSW,240,2.0,4.0,87,0.00,,---,0.00,0.00,VWS V14.01,2013-09-11 05:01:00,
2013-09-11 00:06:00,69.8,65.8,29.95,WSW,240,2.0,3.0,87,0.00,,---,0.00,0.00,VWS V14.01,2013-09-11 05:06:00,
2013-09-11 00:11:00,69.8,65.8,29.95,WSW,247,4.0,5.0,87,0.00,,---,0.00,0.00,VWS V14.01,2013-09-11 05:11:00,
2013-09-11 00:16:00,69.8,65.8,29.95,West,268,5.0,6.0,87,0.00,,---,0.00,0.00,VWS V14.01,2013-09-11 05:16:00,
2013-09-11 00:21:00,69.9,65.5,29.95,West,273,4.0,6.0,86,0.00,,---,0.00,0.00,VWS V14.01,2013-09-11 05:21:00,
2013-09-11 00:26:00,70.0,65.6,29.95,West,272,4.0,6.0,86,0.00,,---,0.00,0.00,VWS V14.01,2013-09-11 05:26:00,
2013-09-11 00:31:00,70.0,65.6,29.96,West,273,3.0,6.0,86,0.00,,---,0.00,0.00,VWS V14.01,2013-09-11 05:31:00,
2013-09-11 00:36:00,70.0,65.6,29.96,West,273,2.0,3.0,86,0.00,,---,0.00,0.00,VWS V14.01,2013-09-11 05:36:00,
2013-09-11 00:41:00,69.9,65.5,29.96,West,272,2.0,3.0,86,0.00,,---,0.00,0.00,VWS V14.01,2013-09-11 05:41:00,
2013-09-11 00:46:00,69.8,65.8,29.96,West,273,2.0,3.0,87,0.00,,---,0.00,0.00,VWS V14.01,2013-09-11 05:46:00,
2013-09-11 00:51:00,69.7,65.7,29.96,West,275,5.0,5.0,87,0.00,,---,0.00,0.00,VWS V14.01,2013-09-11 05:51:00,
2013-09-11 00:56:00,69.6,65.6,29.96,West,279,0.0,5.0,87,0.00,,---,0.00,0.00,VWS V14.01,2013-09-11 05:56:00,
2013-09-11 01:01:00,69.5,65.5,29.95,West,279,0.0,5.0,87,0.00,,---,0.00,0.00,VWS V14.01,2013-09-11 06:01:00,
2013-09-11 01:06:00,69.4,65.4,29.96,WNW,282,5.0,6.0,87,0.00,,---,0.00,0.00,VWS V14.01,2013-09-11 06:06:00,
2013-09-11 01:11:00,69.3,65.3,29.95,WNW,282,4.0,6.0,87,0.00,,---,0.00,0.00,VWS V14.01,2013-09-11 06:11:00,
2013-09-11 01:16:00,69.2,65.2,29.95,WNW,290,5.0,6.0,87,0.00,,---,0.00,0.00,VWS V14.01,2013-09-11 06:16:00,
2013-09-11 01:21:00,69.0,65.3,29.96,WNW,291,3.0,5.0,88,0.00,,---,0.00,0.00,VWS V14.01,2013-09-11 06:21:00,
2013-09-11 01:26:00,68.8,65.1,29.95,WNW,292,0.0,5.0,88,0.00,,---,0.00,0.00,VWS V14.01,2013-09-11 06:26:00,
2013-09-11 01:31:00,68.6,64.9,29.96,WNW,292,3.0,5.0,88,0.00,,---,0.00,0.00,VWS V14.01,2013-09-11 06:31:00,
2013-09-11 01:36:00,68.4,65.0,29.96,WNW,292,3.0,4.0,89,0.00,,---,0.00,0.00,VWS V14.01,2013-09-11 06:36:00,
2013-09-11 01:41:00,68.0,64.6,29.96,WNW,296,4.0,4.0,89,0.00,,---,0.00,0.00,VWS V14.01,2013-09-11 06:41:00,
2013-09-11 01:46:00,67.9,64.9,29.95,WNW,296,3.0,4.0,90,0.00,,---,0.00,0.00,VWS V14.01,2013-09-11 06:46:00,
2013-09-11 01:51:00,67.7,65.0,29.96,WNW,296,0.0,0.0,91,0.00,,---,0.00,0.00,VWS V14.01,2013-09-11 06:51:00,
2013-09-11 01:56:00,67.7,65.0,29.96,WNW,296,0.0,4.0,91,0.00,,---,0.00,0.00,VWS V14.01,2013-09-11 06:56:00,
2013-09-11 02:01:00,67.5,64.8,29.95,WNW,296,0.0,4.0,91,0.00,,---,0.00,0.00,VWS V14.01,2013-09-11 07:01:00,
2013-09-11 02:06:00,67.4,64.7,29.96,WNW,296,0.0,0.0,91,0.00,,---,0.00,0.00,VWS V14.01,2013-09-11 07:06:00,
2013-09-11 02:11:00,67.4,64.7,29.95,WNW,296,0.0,0.0,91,0.00,,---,0.00,0.00,VWS V14.01,2013-09-11 07:11:00,
2013-09-11 02:16:00,67.3,64.6,29.95,WNW,296,0.0,0.0,91,0.00,,---,0.00,0.00,VWS V14.01,2013-09-11 07:16:00,
2013-09-11 02:21:00,67.2,64.5,29.96,WNW,296,0.0,0.0,91,0.00,,---,0.00,0.00,VWS V14.01,2013-09-11 07:21:00,
2013-09-11 02:26:00,67.1,64.4,29.96,WNW,296,1.0,1.0,91,0.00,,---,0.00,0.00,VWS V14.01,2013-09-11 07:26:00,
2013-09-11 02:31:00,66.7,64.0,29.96,WNW,296,3.0,4.0,91,0.00,,---,0.00,0.00,VWS V14.01,2013-09-11 07:31:00,
2013-09-11 02:36:00,66.4,64.0,29.96,WNW,294,3.0,3.0,92,0.00,,---,0.00,0.00,VWS V14.01,2013-09-11 07:36:00,
2013-09-11 02:41:00,66.4,64.0,29.96,WNW,293,2.0,4.0,92,0.00,,---,0.00,0.00,VWS V14.01,2013-09-11 07:41:00,
2013-09-11 02:46:00,66.3,63.9,29.96,WNW,292,0.0,4.0,92,0.00,,---,0.00,0.00,VWS V14.01,2013-09-11 07:46:00,
2013-09-11 02:51:00,66.2,63.8,29.97,WNW,292,0.0,0.0,92,0.00,,---,0.00,0.00,VWS V14.01,2013-09-11 07:51:00,
2013-09-11 02:56:00,66.2,64.1,29.97,WNW,292,0.0,0.0,93,0.00,,---,0.00,0.00,VWS V14.01,2013-09-11 07:56:00,
2013-09-11 03:01:00,66.2,64.1,29.97,WNW,292,1.0,3.0,93,0.00,,---,0.00,0.00,VWS V14.01,2013-09-11 08:01:00,
2013-09-11 03:06:00,66.3,64.2,29.96,WNW,292,2.0,3.0,93,0.00,,---,0.00,0.00,VWS V14.01,2013-09-11 08:06:00,
2013-09-11 03:11:00,66.2,64.1,29.97,WNW,292,1.0,3.0,93,0.00,,---,0.00,0.00,VWS V14.01,2013-09-11 08:11:00,
2013-09-11 03:16:00,66.1,64.0,29.97,WNW,292,0.0,3.0,93,0.00,,---,0.00,0.00,VWS V14.01,2013-09-11 08:16:00,
2013-09-11 03:21:00,66.0,63.9,29.97,WNW,292,0.0,0.0,93,0.00,,---,0.00,0.00,VWS V14.01,2013-09-11 08:21:00,
2013-09-11 03:26:00,65.9,63.8,29.97,WNW,292,0.0,0.0,93,0.00,,---,0.00,0.00,VWS V14.01,2013-09-11 08:26:00,
2013-09-11 03:31:00,65.9,63.8,29.96,WNW,292,0.0,0.0,93,0.00,,---,0.00,0.00,VWS V14.01,2013-09-11 08:31:00,
2013-09-11 03:36:00,65.8,63.7,29.96,WNW,292,0.0,0.0,93,0.00,,---,0.00,0.00,VWS V14.01,2013-09-11 08:36:00,
2013-09-11 03:41:00,65.7,63.6,29.97,WNW,292,0.0,0.0,93,0.00,,---,0.00,0.00,VWS V14.01,2013-09-11 08:41:00,
2013-09-11 03:46:00,65.6,63.5,29.97,WNW,292,0.0,0.0,93,0.00,,---,0.00,0.00,VWS V14.01,2013-09-11 08:46:00,
2013-09-11 03:51:00,65.6,63.5,29.97,WNW,292,0.0,0.0,93,0.00,,---,0.00,0.00,VWS V14.01,2013-09-11 08:51:00,
2013-09-11 03:56:00,65.6,63.5,29.97,WNW,292,0.0,2.0,93,0.00,,---,0.00,0.00,VWS V14.01,2013-09-11 08:56:00,
2013-09-11 04:01:00,65.6,63.5,29.97,WNW,292,0.0,2.0,93,0.00,,---,0.00,0.00,VWS V14.01,2013-09-11 09:01:00,
2013-09-11 04:06:00,65.5,63.4,29.97,WNW,292,0.0,0.0,93,0.00,,---,0.00,0.00,VWS V14.01,2013-09-11 09:06:00,
2013-09-11 04:11:00,65.4,63.3,29.97,WNW,292,1.0,3.0,93,0.00,,---,0.00,0.00,VWS V14.01,2013-09-11 09:11:00,
2013-09-11 04:16:00,65.3,63.2,29.97,WNW,292,1.0,3.0,93,0.00,,---,0.00,0.00,VWS V14.01,2013-09-11 09:16:00,
2013-09-11 04:21:00,65.2,63.1,29.97,WNW,292,2.0,3.0,93,0.00,,---,0.00,0.00,VWS V14.01,2013-09-11 09:21:00,
2013-09-11 04:26:00,65.3,63.2,29.97,WNW,292,0.0,3.0,93,0.00,,---,0.00,0.00,VWS V14.01,2013-09-11 09:26:00,
2013-09-11 04:31:00,65.2,62.8,29.97,WNW,292,0.0,3.0,92,0.00,,---,0.00,0.00,VWS V14.01,2013-09-11 09:31:00,
2013-09-11 04:36:00,64.9,62.5,29.97,WNW,292,0.0,0.0,92,0.00,,---,0.00,0.00,VWS V14.01,2013-09-11 09:36:00,
2013-09-11 04:41:00,64.8,62.4,29.97,WNW,292,0.0,0.0,92,0.00,,---,0.00,0.00,VWS V14.01,2013-09-11 09:41:00,
2013-09-11 04:46:00,64.6,62.2,29.97,WNW,292,0.0,0.0,92,0.00,,---,0.00,0.00,VWS V14.01,2013-09-11 09:46:00,
2013-09-11 04:51:00,64.3,61.6,29.97,WNW,292,0.0,0.0,91,0.00,,---,0.00,0.00,VWS V14.01,2013-09-11 09:51:00,
2013-09-11 04:56:00,64.0,61.6,29.97,WNW,292,0.0,0.0,92,0.00,,---,0.00,0.00,VWS V14.01,2013-09-11 09:56:00,
2013-09-11 05:01:00,63.9,61.5,29.98,WNW,292,0.0,0.0,92,0.00,,---,0.00,0.00,VWS V14.01,2013-09-11 10:01:00,
2013-09-11 05:06:00,63.9,61.5,29.98,WNW,292,0.0,0.0,92,0.00,,---,0.00,0.00,VWS V14.01,2013-09-11 10:06:00,
2013-09-11 05:11:00,63.8,61.4,29.98,WNW,292,0.0,0.0,92,0.00,,---,0.00,0.00,VWS V14.01,2013-09-11 10:11:00,
2013-09-11 05:16:00,63.6,61.2,29.98,WNW,292,0.0,0.0,92,0.00,,---,0.00,0.00,VWS V14.01,2013-09-11 10:16:00,
2013-09-11 05:21:00,63.3,60.9,29.98,WNW,292,0.0,0.0,92,0.00,,---,0.00,0.00,VWS V14.01,2013-09-11 10:21:00,
2013-09-11 05:26:00,62.9,60.8,29.98,WNW,292,0.0,0.0,93,0.00,,---,0.00,0.00,VWS V14.01,2013-09-11 10:26:00,
2013-09-11 05:31:00,62.6,60.5,29.98,WNW,292,0.0,0.0,93,0.00,,---,0.00,0.00,VWS V14.01,2013-09-11 10:31:00,
2013-09-11 05:36:00,62.4,60.3,29.98,WNW,292,0.0,0.0,93,0.00,,---,0.00,0.00,VWS V14.01,2013-09-11 10:36:00,
2013-09-11 05:41:00,62.4,60.7,29.98,WNW,292,0.0,0.0,94,0.00,,---,0.00,0.00,VWS V14.01,2013-09-11 10:41:00,
2013-09-11 05:46:00,62.3,60.2,29.98,WNW,292,0.0,0.0,93,0.00,,---,0.00,0.00,VWS V14.01,2013-09-11 10:46:00,
2013-09-11 05:51:00,62.2,60.2,29.98,WNW,292,0.0,0.0,93,0.00,,---,0.00,0.00,VWS V14.01,2013-09-11 10:51:00,
2013-09-11 05:56:00,62.2,60.5,29.98,WNW,292,0.0,0.0,94,0.00,,---,0.00,0.00,VWS V14.01,2013-09-11 10:56:00,
2013-09-11 06:01:00,62.1,60.4,29.98,WNW,292,0.0,0.0,94,0.00,,---,0.00,0.00,VWS V14.01,2013-09-11 11:01:00,
2013-09-11 06:06:00,62.1,60.4,29.98,WNW,292,0.0,0.0,94,0.00,,---,0.00,0.00,VWS V14.01,2013-09-11 11:06:00,
2013-09-11 06:11:00,62.2,60.5,29.98,WNW,292,0.0,0.0,94,0.00,,---,0.00,0.00,VWS V14.01,2013-09-11 11:11:00,
2013-09-11 06:16:00,62.4,60.7,29.98,WNW,292,0.0,0.0,94,0.00,,---,0.00,0.00,VWS V14.01,2013-09-11 11:16:00,
2013-09-11 06:21:00,62.6,60.8,29.99,WNW,292,0.0,0.0,94,0.00,,---,0.00,0.00,VWS V14.01,2013-09-11 11:21:00,
2013-09-11 06:26:00,62.3,60.6,29.99,WNW,292,0.0,0.0,94,0.00,,---,0.00,0.00,VWS V14.01,2013-09-11 11:26:00,
2013-09-11 06:31:00,62.1,60.4,29.99,WNW,292,0.0,0.0,94,0.00,,---,0.00,0.00,VWS V14.01,2013-09-11 11:31:00,
2013-09-11 06:36:00,61.9,60.2,29.99,WNW,292,0.0,0.0,94,0.00,,---,0.00,0.00,VWS V14.01,2013-09-11 11:36:00,
2013-09-11 06:41:00,61.8,60.1,29.99,WNW,292,0.0,0.0,94,0.00,,---,0.00,0.00,VWS V14.01,2013-09-11 11:41:00,
2013-09-11 06:46:00,61.7,60.0,29.99,WNW,292,0.0,0.0,94,0.00,,---,0.00,0.00,VWS V14.01,2013-09-11 11:46:00,
2013-09-11 06:51:00,61.4,59.7,29.99,WNW,292,0.0,0.0,94,0.00,,---,0.00,0.00,VWS V14.01,2013-09-11 11:51:00,
2013-09-11 06:56:00,61.4,59.7,29.99,WNW,292,0.0,0.0,94,0.00,,---,0.00,0.00,VWS V14.01,2013-09-11 11:56:00,
2013-09-11 07:01:00,61.2,59.5,30.00,WNW,292,0.0,0.0,94,0.00,,---,0.00,5.00,VWS V14.01,2013-09-11 12:01:00,
2013-09-11 07:06:00,61.1,59.4,30.00,WNW,292,0.0,0.0,94,0.00,,---,0.00,7.00,VWS V14.01,2013-09-11 12:06:00,
2013-09-11 07:11:00,60.8,59.1,30.00,WNW,292,0.0,0.0,94,0.00,,---,0.00,9.00,VWS V14.01,2013-09-11 12:11:00,
2013-09-11 07:16:00,60.7,59.0,30.00,WNW,292,0.0,0.0,94,0.00,,---,0.00,12.00,VWS V14.01,2013-09-11 12:16:00,
2013-09-11 07:21:00,60.8,59.4,30.00,WNW,292,0.0,0.0,95,0.00,,---,0.00,28.00,VWS V14.01,2013-09-11 12:21:00,
2013-09-11 07:26:00,60.9,59.5,30.00,WNW,292,4.0,4.0,95,0.00,,---,0.00,33.00,VWS V14.01,2013-09-11 12:26:00,
2013-09-11 07:31:00,61.1,59.7,30.00,WNW,292,4.0,5.0,95,0.00,,---,0.00,62.00,VWS V14.01,2013-09-11 12:31:00,
2013-09-11 07:36:00,61.3,59.9,30.00,WNW,288,3.0,5.0,95,0.00,,---,0.00,93.00,VWS V14.01,2013-09-11 12:36:00,
2013-09-11 07:41:00,61.6,60.2,30.00,WNW,287,3.0,5.0,95,0.00,,---,0.00,109.00,VWS V14.01,2013-09-11 12:41:00,
2013-09-11 07:46:00,61.9,60.5,30.00,WNW,287,2.0,5.0,95,0.00,,---,0.00,121.00,VWS V14.01,2013-09-11 12:46:00,
2013-09-11 07:51:00,62.3,60.8,30.00,WNW,287,2.0,3.0,95,0.00,,---,0.00,130.00,VWS V14.01,2013-09-11 12:51:00,
2013-09-11 07:56:00,62.7,61.2,30.00,WNW,287,0.0,3.0,95,0.00,,---,0.00,137.00,VWS V14.01,2013-09-11 12:56:00,
2013-09-11 08:01:00,63.1,61.7,30.00,WNW,286,4.0,4.0,95,0.00,,---,0.00,121.00,VWS V14.01,2013-09-11 13:01:00,
2013-09-11 08:06:00,63.4,61.7,30.00,WNW,284,3.0,5.0,94,0.00,,---,0.00,169.00,VWS V14.01,2013-09-11 13:06:00,
2013-09-11 08:11:00,63.8,61.7,30.00,West,280,4.0,5.0,93,0.00,,---,0.00,183.00,VWS V14.01,2013-09-11 13:11:00,
2013-09-11 08:16:00,64.3,61.9,30.00,West,268,5.0,6.0,92,0.00,,---,0.00,200.00,VWS V14.01,2013-09-11 13:16:00,
2013-09-11 08:21:00,64.8,61.8,30.00,West,259,5.0,6.0,90,0.00,,---,0.00,220.00,VWS V14.01,2013-09-11 13:21:00,
2013-09-11 08:26:00,65.2,61.9,30.01,West,259,4.0,6.0,89,0.00,,---,0.00,227.00,VWS V14.01,2013-09-11 13:26:00,
2013-09-11 08:31:00,65.5,61.5,30.00,West,259,3.0,6.0,87,0.00,,---,0.00,255.00,VWS V14.01,2013-09-11 13:31:00,
2013-09-11 08:36:00,66.0,62.0,30.00,West,259,4.0,5.0,87,0.00,,---,0.00,267.00,VWS V14.01,2013-09-11 13:36:00,
2013-09-11 08:41:00,66.5,62.2,30.00,West,259,4.0,6.0,86,0.00,,---,0.00,285.00,VWS V14.01,2013-09-11 13:41:00,
2013-09-11 08:46:00,67.0,62.0,30.00,WSW,256,5.0,8.0,84,0.00,,---,0.00,304.00,VWS V14.01,2013-09-11 13:46:00,
2013-09-11 08:51:00,67.4,62.1,30.00,West,264,5.0,7.0,83,0.00,,---,0.00,316.00,VWS V14.01,2013-09-11 13:51:00,
2013-09-11 08:56:00,67.8,62.1,30.00,West,268,5.0,7.0,82,0.00,,---,0.00,330.00,VWS V14.01,2013-09-11 13:56:00,
2013-09-11 09:01:00,68.2,62.5,30.00,West,265,5.0,7.0,82,0.00,,---,0.00,345.00,VWS V14.01,2013-09-11 14:01:00,
2013-09-11 09:06:00,68.8,62.7,30.00,West,272,6.0,7.0,81,0.00,,---,0.00,364.00,VWS V14.01,2013-09-11 14:06:00,
2013-09-11 09:11:00,69.3,62.9,30.00,West,275,7.0,9.0,80,0.00,,---,0.00,376.00,VWS V14.01,2013-09-11 14:11:00,
2013-09-11 09:16:00,70.0,62.8,30.00,WNW,291,7.0,9.0,78,0.00,,---,0.00,390.00,VWS V14.01,2013-09-11 14:16:00,
2013-09-11 09:21:00,70.7,62.8,30.00,WNW,292,9.0,11.0,76,0.00,,---,0.00,406.00,VWS V14.01,2013-09-11 14:21:00,
2013-09-11 09:26:00,71.3,62.2,30.00,WNW,287,6.0,16.0,73,0.00,,---,0.00,422.00,VWS V14.01,2013-09-11 14:26:00,
2013-09-11 09:31:00,71.9,62.8,30.00,WNW,296,5.0,16.0,73,0.00,,---,0.00,436.00,VWS V14.01,2013-09-11 14:31:00,
2013-09-11 09:36:00,72.3,62.4,30.00,WNW,294,12.0,13.0,71,0.00,,---,0.00,452.00,VWS V14.01,2013-09-11 14:36:00,
2013-09-11 09:41:00,72.6,61.9,30.00,NW,304,14.0,14.0,69,0.00,,---,0.00,466.00,VWS V14.01,2013-09-11 14:41:00,
2013-09-11 09:46:00,72.8,62.0,30.00,WNW,290,9.0,14.0,69,0.00,,---,0.00,478.00,VWS V14.01,2013-09-11 14:46:00,
2013-09-11 09:51:00,73.0,62.2,30.00,WNW,292,12.0,13.0,69,0.00,,---,0.00,494.00,VWS V14.01,2013-09-11 14:51:00,
2013-09-11 09:57:00,73.1,62.3,30.00,WNW,294,10.0,15.0,69,0.00,,---,0.00,508.00,VWS V14.01,2013-09-11 14:57:00,
2013-09-11 10:02:00,73.4,62.2,30.00,WNW,302,7.0,15.0,68,0.00,,---,0.00,520.00,VWS V14.01,2013-09-11 15:02:00,
2013-09-11 10:07:00,73.6,61.5,30.01,WNW,296,11.0,15.0,66,0.00,,---,0.00,534.00,VWS V14.01,2013-09-11 15:07:00,
2013-09-11 10:12:00,73.8,62.6,30.01,WNW,288,10.0,15.0,68,0.00,,---,0.00,545.00,VWS V14.01,2013-09-11 15:12:00,
2013-09-11 10:17:00,74.0,61.9,30.01,NW,309,10.0,15.0,66,0.00,,---,0.00,559.00,VWS V14.01,2013-09-11 15:17:00,
2013-09-11 10:22:00,74.2,61.7,30.01,WNW,284,9.0,12.0,65,0.00,,---,0.00,564.00,VWS V14.01,2013-09-11 15:22:00,
2013-09-11 10:27:00,74.5,62.0,30.01,WNW,286,9.0,12.0,65,0.00,,---,0.00,584.00,VWS V14.01,2013-09-11 15:27:00,
2013-09-11 10:32:00,74.7,62.2,30.02,WNW,286,10.0,14.0,65,0.00,,---,0.00,599.00,VWS V14.01,2013-09-11 15:32:00,
2013-09-11 10:37:00,74.9,61.9,30.01,WNW,299,10.0,16.0,64,0.00,,---,0.00,612.00,VWS V14.01,2013-09-11 15:37:00,
2013-09-11 10:42:00,75.0,62.5,30.01,NW,319,10.0,16.0,65,0.00,,---,0.00,626.00,VWS V14.01,2013-09-11 15:42:00,
2013-09-11 10:47:00,75.3,62.7,30.02,NW,310,11.0,16.0,65,0.00,,---,0.00,643.00,VWS V14.01,2013-09-11 15:47:00,
2013-09-11 10:52:00,75.6,62.6,30.02,WNW,293,13.0,13.0,64,0.00,,---,0.00,656.00,VWS V14.01,2013-09-11 15:52:00,
2013-09-11 10:57:00,75.8,62.8,30.02,NW,323,13.0,14.0,64,0.00,,---,0.00,668.00,VWS V14.01,2013-09-11 15:57:00,
2013-09-11 11:02:00,76.1,63.0,30.02,NNW,328,7.0,15.0,64,0.00,,---,0.00,675.00,VWS V14.01,2013-09-11 16:02:00,
2013-09-11 11:07:00,76.3,63.2,30.02,WNW,297,11.0,13.0,64,0.00,,---,0.00,689.00,VWS V14.01,2013-09-11 16:07:00,
2013-09-11 11:12:00,76.6,62.2,30.02,NW,319,10.0,15.0,61,0.00,,---,0.00,701.00,VWS V14.01,2013-09-11 16:12:00,
2013-09-11 11:17:00,76.8,62.3,30.02,NNW,328,13.0,15.0,61,0.00,,---,0.00,714.00,VWS V14.01,2013-09-11 16:17:00,
2013-09-11 11:22:00,77.1,62.6,30.02,NW,325,10.0,13.0,61,0.00,,---,0.00,719.00,VWS V14.01,2013-09-11 16:22:00,
2013-09-11 11:27:00,77.4,61.5,30.02,NW,323,12.0,16.0,58,0.00,,---,0.00,729.00,VWS V14.01,2013-09-11 16:27:00,
2013-09-11 11:32:00,77.9,62.9,30.01,NNW,327,12.0,16.0,60,0.00,,---,0.00,742.00,VWS V14.01,2013-09-11 16:32:00,
2013-09-11 11:37:00,78.1,62.1,30.01,WNW,302,9.0,14.0,58,0.00,,---,0.00,751.00,VWS V14.01,2013-09-11 16:37:00,
2013-09-11 11:42:00,78.3,62.3,30.02,WNW,299,14.0,15.0,58,0.00,,---,0.00,751.00,VWS V14.01,2013-09-11 16:42:00,
2013-09-11 11:47:00,78.7,62.2,30.02,NNW,330,13.0,15.0,57,0.00,,---,0.00,763.00,VWS V14.01,2013-09-11 16:47:00,
2013-09-11 11:52:00,78.8,62.3,30.02,NNW,332,12.0,12.0,57,0.00,,---,0.00,766.00,VWS V14.01,2013-09-11 16:52:00,
2013-09-11 11:57:00,79.1,61.0,30.02,NW,310,14.0,18.0,54,0.00,,---,0.00,770.00,VWS V14.01,2013-09-11 16:57:00,
2013-09-11 12:02:00,79.5,61.4,30.02,WNW,293,11.0,18.0,54,0.00,,---,0.00,782.00,VWS V14.01,2013-09-11 17:02:00,
2013-09-11 12:07:00,79.8,61.7,30.02,NW,326,10.0,16.0,54,0.00,,---,0.00,791.00,VWS V14.01,2013-09-11 17:07:00,
2013-09-11 12:12:00,79.9,60.7,30.02,WNW,292,13.0,17.0,52,0.00,,---,0.00,803.00,VWS V14.01,2013-09-11 17:12:00,
2013-09-11 12:17:00,79.9,61.3,30.01,NW,309,11.0,17.0,53,0.00,,---,0.00,810.00,VWS V14.01,2013-09-11 17:17:00,
2013-09-11 12:22:00,80.0,60.8,30.02,NW,309,12.0,15.0,52,0.00,,---,0.00,826.00,VWS V14.01,2013-09-11 17:22:00,
2013-09-11 12:27:00,80.2,60.5,30.01,WNW,295,11.0,15.0,51,0.00,,---,0.00,809.00,VWS V14.01,2013-09-11 17:27:00,
2013-09-11 12:32:00,80.3,59.4,30.01,NW,313,9.0,18.0,49,0.00,,---,0.00,851.00,VWS V14.01,2013-09-11 17:32:00,
2013-09-11 12:37:00,80.6,61.4,30.01,NW,311,15.0,15.0,52,0.00,,---,0.00,810.00,VWS V14.01,2013-09-11 17:37:00,
2013-09-11 12:42:00,81.1,61.3,30.01,WNW,298,10.0,15.0,51,0.00,,---,0.00,587.00,VWS V14.01,2013-09-11 17:42:00,
2013-09-11 12:47:00,81.1,61.8,30.01,WNW,298,8.0,15.0,52,0.00,,---,0.00,851.00,VWS V14.01,2013-09-11 17:47:00,
2013-09-11 12:52:00,81.2,59.1,30.01,WNW,302,9.0,17.0,47,0.00,,---,0.00,877.00,VWS V14.01,2013-09-11 17:52:00,
2013-09-11 12:57:00,81.4,59.8,30.01,WNW,299,12.0,18.0,48,0.00,,---,0.00,904.00,VWS V14.01,2013-09-11 17:57:00,
2013-09-11 13:02:00,81.4,60.4,30.01,NW,318,12.0,18.0,49,0.00,,---,0.00,898.00,VWS V14.01,2013-09-11 18:02:00,
2013-09-11 13:07:00,81.5,58.8,30.01,WNW,288,18.0,18.0,46,0.00,,---,0.00,898.00,VWS V14.01,2013-09-11 18:07:00,
2013-09-11 13:12:00,81.3,59.8,30.01,WNW,284,10.0,18.0,48,0.00,,---,0.00,802.00,VWS V14.01,2013-09-11 18:12:00,
2013-09-11 13:17:00,81.5,58.1,30.01,West,279,11.0,18.0,45,0.00,,---,0.00,795.00,VWS V14.01,2013-09-11 18:17:00,
2013-09-11 13:22:00,81.7,60.7,30.01,NW,317,14.0,14.0,49,0.00,,---,0.00,661.00,VWS V14.01,2013-09-11 18:22:00,
2013-09-11 13:27:00,81.7,60.1,30.01,NW,319,9.0,16.0,48,0.00,,---,0.00,868.00,VWS V14.01,2013-09-11 18:27:00,
2013-09-11 13:32:00,81.6,59.4,30.01,NW,309,7.0,16.0,47,0.00,,---,0.00,833.00,VWS V14.01,2013-09-11 18:32:00,
2013-09-11 13:37:00,81.8,59.0,30.01,WNW,297,16.0,18.0,46,0.00,,---,0.00,738.00,VWS V14.01,2013-09-11 18:37:00,
2013-09-11 13:42:00,81.9,57.9,30.01,WNW,301,8.0,18.0,44,0.00,,---,0.00,805.00,VWS V14.01,2013-09-11 18:42:00,
2013-09-11 13:47:00,82.2,59.4,30.01,NW,308,11.0,18.0,46,0.00,,---,0.00,826.00,VWS V14.01,2013-09-11 18:47:00,
2013-09-11 13:52:00,82.5,59.0,30.01,NW,321,12.0,15.0,45,0.00,,---,0.00,842.00,VWS V14.01,2013-09-11 18:52:00,
2013-09-11 13:57:00,82.6,58.5,30.01,WNW,302,11.0,17.0,44,0.00,,---,0.00,657.00,VWS V14.01,2013-09-11 18:57:00,
2013-09-11 14:02:00,82.3,59.5,30.01,NW,319,11.0,17.0,46,0.00,,---,0.00,487.00,VWS V14.01,2013-09-11 19:02:00,
2013-09-11 14:07:00,82.0,58.0,30.01,NW,319,9.0,15.0,44,0.00,,---,0.00,824.00,VWS V14.01,2013-09-11 19:07:00,
2013-09-11 14:12:00,82.0,58.6,30.01,WNW,298,12.0,15.0,45,0.00,,---,0.00,840.00,VWS V14.01,2013-09-11 19:12:00,
2013-09-11 14:17:00,82.3,58.2,30.01,NNW,340,12.0,17.0,44,0.00,,---,0.00,816.00,VWS V14.01,2013-09-11 19:17:00,
2013-09-11 14:22:00,82.2,57.5,30.00,WNW,286,7.0,12.0,43,0.00,,---,0.00,782.00,VWS V14.01,2013-09-11 19:22:00,
2013-09-11 14:27:00,82.3,56.9,30.00,NW,313,15.0,20.0,42,0.00,,---,0.00,629.00,VWS V14.01,2013-09-11 19:27:00,
2013-09-11 14:32:00,82.5,57.1,30.01,NW,309,12.0,20.0,42,0.00,,---,0.00,587.00,VWS V14.01,2013-09-11 19:32:00,
2013-09-11 14:37:00,82.3,56.3,30.00,WNW,291,10.0,16.0,41,0.00,,---,0.00,784.00,VWS V14.01,2013-09-11 19:37:00,
2013-09-11 14:42:00,82.4,56.4,30.00,NW,317,12.0,16.0,41,0.00,,---,0.00,731.00,VWS V14.01,2013-09-11 19:42:00,
2013-09-11 14:47:00,82.6,57.2,30.01,NW,319,14.0,16.0,42,0.00,,---,0.00,666.00,VWS V14.01,2013-09-11 19:47:00,
2013-09-11 14:52:00,82.9,55.4,30.00,NNW,333,12.0,15.0,39,0.00,,---,0.00,663.00,VWS V14.01,2013-09-11 19:52:00,
2013-09-11 14:57:00,83.0,56.2,30.01,NW,313,10.0,15.0,40,0.00,,---,0.00,772.00,VWS V14.01,2013-09-11 19:57:00,
2013-09-11 15:02:00,82.9,56.1,30.01,WNW,284,15.0,18.0,40,0.00,,---,0.00,684.00,VWS V14.01,2013-09-11 20:02:00,
2013-09-11 15:07:00,82.8,55.3,30.01,NNW,331,10.0,15.0,39,0.00,,---,0.00,682.00,VWS V14.01,2013-09-11 20:07:00,
2013-09-11 15:12:00,82.7,56.6,30.01,NW,319,13.0,16.0,41,0.00,,---,0.00,715.00,VWS V14.01,2013-09-11 20:12:00,
2013-09-11 15:17:00,82.7,56.6,30.01,NW,310,10.0,16.0,41,0.00,,---,0.00,761.00,VWS V14.01,2013-09-11 20:17:00,
2013-09-11 15:22:00,82.8,57.4,30.00,NW,323,12.0,15.0,42,0.00,,---,0.00,729.00,VWS V14.01,2013-09-11 20:22:00,
2013-09-11 15:27:00,83.0,56.2,30.00,NW,318,13.0,16.0,40,0.00,,---,0.00,647.00,VWS V14.01,2013-09-11 20:27:00,
2013-09-11 15:32:00,83.1,56.3,30.00,WNW,298,11.0,16.0,40,0.00,,---,0.00,578.00,VWS V14.01,2013-09-11 20:32:00,
2013-09-11 15:37:00,83.1,56.3,30.00,NW,315,15.0,16.0,40,0.00,,---,0.00,675.00,VWS V14.01,2013-09-11 20:37:00,
2013-09-11 15:42:00,83.0,56.2,30.00,NW,311,15.0,17.0,40,0.00,,---,0.00,448.00,VWS V14.01,2013-09-11 20:42:00,
2013-09-11 15:47:00,82.8,55.3,30.00,NW,313,9.0,17.0,39,0.00,,---,0.00,496.00,VWS V14.01,2013-09-11 20:47:00,
2013-09-11 15:52:00,82.9,56.8,30.00,NNW,333,11.0,15.0,41,0.00,,---,0.00,679.00,VWS V14.01,2013-09-11 20:52:00,
2013-09-11 15:57:00,82.9,55.4,30.00,NNW,331,8.0,16.0,39,0.00,,---,0.00,269.00,VWS V14.01,2013-09-11 20:57:00,
2013-09-11 16:02:00,82.6,55.2,30.00,NW,312,7.0,16.0,39,0.00,,---,0.00,229.00,VWS V14.01,2013-09-11 21:02:00,
2013-09-11 16:07:00,82.5,56.5,30.01,WNW,300,11.0,14.0,41,0.00,,---,0.00,547.00,VWS V14.01,2013-09-11 21:07:00,
2013-09-11 16:12:00,82.6,56.5,30.00,NW,309,8.0,14.0,41,0.00,,---,0.00,628.00,VWS V14.01,2013-09-11 21:12:00,
2013-09-11 16:17:00,82.9,56.8,30.00,NNW,337,14.0,14.0,41,0.00,,---,0.00,575.00,VWS V14.01,2013-09-11 21:17:00,
2013-09-11 16:22:00,83.0,57.6,30.00,NNW,331,10.0,15.0,42,0.00,,---,0.00,443.00,VWS V14.01,2013-09-11 21:22:00,
2013-09-11 16:27:00,83.0,56.2,30.00,NNW,330,10.0,15.0,40,0.00,,---,0.00,450.00,VWS V14.01,2013-09-11 21:27:00,
2013-09-11 16:32:00,83.0,56.2,30.00,NW,316,6.0,15.0,40,0.00,,---,0.00,288.00,VWS V14.01,2013-09-11 21:32:00,
2013-09-11 16:37:00,82.9,56.8,30.00,WNW,294,12.0,15.0,41,0.00,,---,0.00,364.00,VWS V14.01,2013-09-11 21:37:00,
2013-09-11 16:42:00,82.6,56.5,30.00,NW,304,8.0,15.0,41,0.00,,---,0.00,371.00,VWS V14.01,2013-09-11 21:42:00,
2013-09-11 16:47:00,82.4,56.4,30.00,NW,314,6.0,15.0,41,0.00,,---,0.00,283.00,VWS V14.01,2013-09-11 21:47:00,
2013-09-11 16:52:00,82.4,57.0,30.00,NW,315,7.0,11.0,42,0.00,,---,0.00,397.00,VWS V14.01,2013-09-11 21:52:00,
2013-09-11 16:57:00,82.6,57.9,29.99,NNW,334,11.0,13.0,43,0.00,,---,0.00,457.00,VWS V14.01,2013-09-11 21:57:00,
2013-09-11 17:02:00,82.6,56.5,29.99,NW,321,6.0,13.0,41,0.00,,---,0.00,404.00,VWS V14.01,2013-09-11 22:02:00,
2013-09-11 17:07:00,82.7,57.3,29.99,NNW,327,6.0,7.0,42,0.00,,---,0.00,438.00,VWS V14.01,2013-09-11 22:07:00,
2013-09-11 17:12:00,82.9,58.1,29.99,NW,315,11.0,13.0,43,0.00,,---,0.00,411.00,VWS V14.01,2013-09-11 22:12:00,
2013-09-11 17:17:00,82.9,58.1,29.99,NW,321,9.0,13.0,43,0.00,,---,0.00,385.00,VWS V14.01,2013-09-11 22:17:00,
2013-09-11 17:22:00,82.9,58.8,29.99,NW,319,6.0,9.0,44,0.00,,---,0.00,378.00,VWS V14.01,2013-09-11 22:22:00,
2013-09-11 17:27:00,82.9,58.1,29.99,NW,319,5.0,9.0,43,0.00,,---,0.00,352.00,VWS V14.01,2013-09-11 22:27:00,
2013-09-11 17:32:00,82.9,57.5,29.99,NW,325,4.0,9.0,42,0.00,,---,0.00,294.00,VWS V14.01,2013-09-11 22:32:00,
2013-09-11 17:37:00,82.9,58.1,29.99,NW,313,6.0,10.0,43,0.00,,---,0.00,313.00,VWS V14.01,2013-09-11 22:37:00,
2013-09-11 17:42:00,82.9,58.1,29.99,NW,311,6.0,10.0,43,0.00,,---,0.00,200.00,VWS V14.01,2013-09-11 22:42:00,
2013-09-11 17:47:00,82.7,58.6,29.99,NW,311,6.0,11.0,44,0.00,,---,0.00,304.00,VWS V14.01,2013-09-11 22:47:00,
2013-09-11 17:52:00,82.5,59.7,29.99,NW,311,4.0,9.0,46,0.00,,---,0.00,279.00,VWS V14.01,2013-09-11 22:52:00,
2013-09-11 17:57:00,82.5,59.0,29.99,NW,318,4.0,9.0,45,0.00,,---,0.00,244.00,VWS V14.01,2013-09-11 22:57:00,
2013-09-11 18:02:00,82.6,58.5,29.98,NW,319,3.0,9.0,44,0.00,,---,0.00,144.00,VWS V14.01,2013-09-11 23:02:00,
2013-09-11 18:07:00,82.4,59.0,29.99,NW,318,3.0,6.0,45,0.00,,---,0.00,192.00,VWS V14.01,2013-09-11 23:07:00,
2013-09-11 18:12:00,82.3,59.5,29.98,NW,318,3.0,6.0,46,0.00,,---,0.00,179.00,VWS V14.01,2013-09-11 23:12:00,
2013-09-11 18:17:00,82.3,59.5,29.98,NW,319,2.0,6.0,46,0.00,,---,0.00,169.00,VWS V14.01,2013-09-11 23:17:00,
2013-09-11 18:22:00,82.3,60.7,29.98,NW,319,3.0,3.0,48,0.00,,---,0.00,153.00,VWS V14.01,2013-09-11 23:22:00,
2013-09-11 18:27:00,82.2,61.7,29.99,NW,318,0.0,4.0,50,0.00,,---,0.00,134.00,VWS V14.01,2013-09-11 23:27:00,
2013-09-11 18:32:00,82.0,60.4,29.99,NW,319,1.0,4.0,48,0.00,,---,0.00,97.00,VWS V14.01,2013-09-11 23:32:00,
2013-09-11 18:37:00,81.8,59.6,29.98,NW,319,1.0,2.0,47,0.00,,---,0.00,97.00,VWS V14.01,2013-09-11 23:37:00,
2013-09-11 18:42:00,81.7,59.5,29.98,NW,319,0.0,2.0,47,0.00,,---,0.00,86.00,VWS V14.01,2013-09-11 23:42:00,
2013-09-11 18:47:00,81.7,60.1,29.98,NW,318,0.0,2.0,48,0.00,,---,0.00,70.00,VWS V14.01,2013-09-11 23:47:00,
2013-09-11 18:52:00,81.7,58.9,29.98,NW,319,0.0,0.0,46,0.00,,---,0.00,56.00,VWS V14.01,2013-09-11 23:52:00,
2013-09-11 18:57:00,81.6,58.8,29.99,NW,319,0.0,0.0,46,0.00,,---,0.00,40.00,VWS V14.01,2013-09-11 23:57:00,
2013-09-11 19:02:00,81.5,59.9,29.98,NW,319,0.0,0.0,48,0.00,,---,0.00,33.00,VWS V14.01,2013-09-12 00:02:00,
2013-09-11 19:07:00,81.3,59.8,29.99,NW,319,0.0,0.0,48,0.00,,---,0.00,26.00,VWS V14.01,2013-09-12 00:07:00,
2013-09-11 19:12:00,81.1,60.2,29.98,NW,319,0.0,0.0,49,0.00,,---,0.00,21.00,VWS V14.01,2013-09-12 00:12:00,
2013-09-11 19:17:00,80.9,60.0,29.98,NW,318,0.0,0.0,49,0.00,,---,0.00,16.00,VWS V14.01,2013-09-12 00:17:00,
2013-09-11 19:22:00,80.5,60.7,29.98,NW,319,0.0,0.0,51,0.00,,---,0.00,12.00,VWS V14.01,2013-09-12 00:22:00,
2013-09-11 19:27:00,80.0,60.8,29.98,NW,318,0.0,0.0,52,0.00,,---,0.00,9.00,VWS V14.01,2013-09-12 00:27:00,
2013-09-11 19:32:00,79.3,61.8,29.98,NW,319,1.0,1.0,55,0.00,,---,0.00,5.00,VWS V14.01,2013-09-12 00:32:00,
2013-09-11 19:37:00,77.9,61.5,29.98,NW,319,0.0,1.0,57,0.00,,---,0.00,0.00,VWS V14.01,2013-09-12 00:37:00,
2013-09-11 19:42:00,76.6,61.2,29.98,NW,318,0.0,2.0,59,0.00,,---,0.00,0.00,VWS V14.01,2013-09-12 00:42:00,
2013-09-11 19:47:00,75.7,60.8,29.99,NW,319,0.0,2.0,60,0.00,,---,0.00,0.00,VWS V14.01,2013-09-12 00:47:00,
2013-09-11 19:52:00,75.1,61.2,29.99,NW,319,0.0,0.0,62,0.00,,---,0.00,0.00,VWS V14.01,2013-09-12 00:52:00,
2013-09-11 19:57:00,74.6,61.2,29.99,NW,319,0.0,0.0,63,0.00,,---,0.00,0.00,VWS V14.01,2013-09-12 00:57:00,
2013-09-11 20:02:00,74.2,61.7,29.99,NW,318,0.0,0.0,65,0.00,,---,0.00,0.00,VWS V14.01,2013-09-12 01:02:00,
2013-09-11 20:07:00,73.7,61.7,29.99,NW,319,0.0,0.0,66,0.00,,---,0.00,0.00,VWS V14.01,2013-09-12 01:07:00,
2013-09-11 20:12:00,73.1,61.9,29.99,NW,319,0.0,0.0,68,0.00,,---,0.00,0.00,VWS V14.01,2013-09-12 01:12:00,
2013-09-11 20:17:00,72.3,61.2,30.00,NW,318,1.0,1.0,68,0.00,,---,0.00,0.00,VWS V14.01,2013-09-12 01:17:00,
2013-09-11 20:22:00,71.7,61.0,30.00,NW,319,0.0,0.0,69,0.00,,---,0.00,0.00,VWS V14.01,2013-09-12 01:22:00,
2013-09-11 20:27:00,71.3,61.8,30.00,NW,319,0.0,1.0,72,0.00,,---,0.00,0.00,VWS V14.01,2013-09-12 01:27:00,
2013-09-11 20:32:00,70.6,61.1,30.00,NW,318,1.0,1.0,72,0.00,,---,0.00,0.00,VWS V14.01,2013-09-12 01:32:00,
2013-09-11 20:37:00,70.1,59.9,30.01,NW,318,0.0,1.0,70,0.00,,---,0.00,0.00,VWS V14.01,2013-09-12 01:37:00,
2013-09-11 20:42:00,69.8,59.6,30.01,NW,319,0.0,1.0,70,0.00,,---,0.00,0.00,VWS V14.01,2013-09-12 01:42:00,
2013-09-11 20:47:00,69.5,59.7,30.01,NW,319,0.0,1.0,71,0.00,,---,0.00,0.00,VWS V14.01,2013-09-12 01:47:00,
2013-09-11 20:52:00,69.4,60.4,30.01,NW,319,1.0,2.0,73,0.00,,---,0.00,0.00,VWS V14.01,2013-09-12 01:52:00,
2013-09-11 20:57:00,69.2,59.8,30.01,NW,318,0.0,2.0,72,0.00,,---,0.00,0.00,VWS V14.01,2013-09-12 01:57:00,
2013-09-11 21:02:00,69.1,58.5,30.01,NW,319,0.0,2.0,69,0.00,,---,0.00,0.00,VWS V14.01,2013-09-12 02:02:00,
2013-09-11 21:07:00,69.4,58.0,30.02,NW,318,3.0,4.0,67,0.00,,---,0.00,0.00,VWS V14.01,2013-09-12 02:07:00,
2013-09-11 21:12:00,69.6,58.2,30.02,NW,318,3.0,4.0,67,0.00,,---,0.00,0.00,VWS V14.01,2013-09-12 02:12:00,
2013-09-11 21:17:00,69.4,58.4,30.02,NW,319,3.0,4.0,68,0.00,,---,0.00,0.00,VWS V14.01,2013-09-12 02:17:00,
2013-09-11 21:22:00,68.9,57.5,30.02,NW,319,5.0,6.0,67,0.00,,---,0.00,0.00,VWS V14.01,2013-09-12 02:22:00,
2013-09-11 21:27:00,68.8,57.0,30.03,NW,319,4.0,6.0,66,0.00,,---,0.00,0.00,VWS V14.01,2013-09-12 02:27:00,
2013-09-11 21:32:00,69.1,57.3,30.03,NW,310,5.0,8.0,66,0.00,,---,0.00,0.00,VWS V14.01,2013-09-12 02:32:00,
2013-09-11 21:37:00,69.1,57.3,30.03,NW,311,9.0,11.0,66,0.00,,---,0.00,0.00,VWS V14.01,2013-09-12 02:37:00,
2013-09-11 21:42:00,69.2,57.0,30.04,NW,322,10.0,11.0,65,0.00,,---,0.00,0.00,VWS V14.01,2013-09-12 02:42:00,
2013-09-11 21:47:00,69.7,56.1,30.04,NW,325,5.0,13.0,62,0.00,,---,0.00,0.00,VWS V14.01,2013-09-12 02:47:00,
2013-09-11 21:52:00,70.2,56.1,30.04,NNW,331,8.0,12.0,61,0.00,,---,0.00,0.00,VWS V14.01,2013-09-12 02:52:00,
2013-09-11 21:57:00,70.5,56.0,30.04,NNW,328,10.0,13.0,60,0.00,,---,0.00,0.00,VWS V14.01,2013-09-12 02:57:00,
2013-09-11 22:02:00,70.6,55.1,30.04,NNW,327,10.0,13.0,58,0.00,,---,0.00,0.00,VWS V14.01,2013-09-12 03:02:00,
2013-09-11 22:07:00,70.5,55.0,30.04,NNW,329,9.0,12.0,58,0.00,,---,0.00,0.00,VWS V14.01,2013-09-12 03:07:00,
2013-09-11 22:12:00,70.4,54.9,30.04,NNW,329,6.0,12.0,58,0.00,,---,0.00,0.00,VWS V14.01,2013-09-12 03:12:00,
2013-09-11 22:17:00,70.3,54.8,30.04,NNW,331,8.0,12.0,58,0.00,,---,0.00,0.00,VWS V14.01,2013-09-12 03:17:00,
2013-09-11 22:22:00,70.2,54.8,30.05,NNW,329,7.0,10.0,58,0.00,,---,0.00,0.00,VWS V14.01,2013-09-12 03:22:00,
2013-09-11 22:27:00,70.2,54.8,30.04,NNW,330,4.0,11.0,58,0.00,,---,0.00,0.00,VWS V14.01,2013-09-12 03:27:00,
2013-09-11 22:32:00,70.0,54.6,30.05,NNW,329,10.0,12.0,58,0.00,,---,0.00,0.00,VWS V14.01,2013-09-12 03:32:00,
2013-09-11 22:37:00,69.8,54.4,30.05,NW,325,6.0,11.0,58,0.00,,---,0.00,0.00,VWS V14.01,2013-09-12 03:37:00,
2013-09-11 22:42:00,69.6,54.2,30.04,NNW,329,8.0,13.0,58,0.00,,---,0.00,0.00,VWS V14.01,2013-09-12 03:42:00,
2013-09-11 22:47:00,69.4,54.0,30.05,NNW,332,6.0,13.0,58,0.00,,---,0.00,0.00,VWS V14.01,2013-09-12 03:47:00,
2013-09-11 22:52:00,69.1,54.2,30.05,NNW,333,6.0,9.0,59,0.00,,---,0.00,0.00,VWS V14.01,2013-09-12 03:52:00,
2013-09-11 22:57:00,68.9,54.0,30.05,NNW,333,7.0,9.0,59,0.00,,---,0.00,0.00,VWS V14.01,2013-09-12 03:57:00,
2013-09-11 23:01:00,68.7,53.8,30.05,NNW,332,5.0,9.0,59,0.00,,---,0.00,0.00,VWS V14.01,2013-09-12 04:01:00,
2013-09-11 23:02:00,68.7,53.8,30.05,NNW,331,8.0,11.0,59,0.00,,---,0.00,0.00,VWS V14.01,2013-09-12 04:02:00,
2013-09-11 23:07:00,68.6,53.2,30.05,NNW,329,10.0,12.0,58,0.00,,---,0.00,0.00,VWS V14.01,2013-09-12 04:07:00,
2013-09-11 23:12:00,68.5,53.6,30.05,NW,324,6.0,12.0,59,0.00,,---,0.00,0.00,VWS V14.01,2013-09-12 04:12:00,
2013-09-11 23:17:00,68.2,53.3,30.05,NNW,328,6.0,12.0,59,0.00,,---,0.00,0.00,VWS V14.01,2013-09-12 04:17:00,
2013-09-11 23:22:00,68.0,53.2,30.05,NNW,333,9.0,14.0,59,0.00,,---,0.00,0.00,VWS V14.01,2013-09-12 04:22:00,
2013-09-11 23:27:00,67.6,53.2,30.06,NNW,328,5.0,14.0,60,0.00,,---,0.00,0.00,VWS V14.01,2013-09-12 04:27:00,
2013-09-11 23:32:00,67.2,53.3,30.06,NW,325,4.0,14.0,61,0.00,,---,0.00,0.00,VWS V14.01,2013-09-12 04:32:00,
2013-09-11 23:37:00,66.9,53.5,30.06,NNW,328,5.0,10.0,62,0.00,,---,0.00,0.00,VWS V14.01,2013-09-12 04:37:00,
2013-09-11 23:42:00,66.6,53.2,30.06,NNW,327,7.0,10.0,62,0.00,,---,0.00,0.00,VWS V14.01,2013-09-12 04:42:00,
2013-09-11 23:47:00,66.2,53.2,30.07,NNW,329,5.0,10.0,63,0.00,,---,0.00,0.00,VWS V14.01,2013-09-12 04:47:00,
2013-09-11 23:52:00,65.8,53.3,30.07,NW,322,5.0,7.0,64,0.00,,---,0.00,0.00,VWS V14.01,2013-09-12 04:52:00,
2013-09-11 23:57:00,65.3,53.2,30.07,NW,318,5.0,7.0,65,0.00,,---,0.00,0.00,VWS V14.01,2013-09-12 04:57:00,